KRBD/RBD METAR and TAF weather

Enter ICAO airport designator
Station Type Date Time Source
KRBD METAR 2019/11/18 08:53 UTC NOAA

KRBD 180853Z AUTO 30005KT 5SM HZ CLR 08/03 A2999 RMK AO2 SLP153 T00780028 56007


Station Type Date Time Source
KRBD Decoded METAR 2019/11/18 08:53 UTC NOAA

DALLAS EXECUTIVE AIRPORT, TX, United States (KRBD) 32-41N 096-52W 203M
Nov 18, 2019 - 03:53 AM EST / 2019.11.18 0853 UTC
Wind: from the WNW (300 degrees) at 6 MPH (5 KT):0
Visibility: 5 mile(s):0
Sky conditions: clear
Weather: haze
Temperature: 46.0 F (7.8 C)
Dew Point: 37.0 F (2.8 C)
Relative Humidity: 70%
Pressure (altimeter): 29.99 in. Hg (1015 hPa)
Pressure tendency: 0.02 inches (0.7 hPa) lower than three hours ago
ob: KRBD 180853Z AUTO 30005KT 5SM HZ CLR 08/03 A2999 RMK AO2 SLP153 T00780028 56007
cycle: 9

Station Type Date Time Source
KRBD TAF UTC NOAA

Error!

Example: see airport list